Arnold, Michigan
Current Conditions -  °F | °C
As of 5:57 AM on Friday 28 Nov 2014 (Local Time) from KSAW Reporting Station
Broken Clouds Broken Clouds  
Wind Chill: -16°   Ceiling: 10000
Heat Index: -16°   Visibility: 10mi
Dew Point: -18°   Wind: 0mph
Humidity: 82%   Direction: NA
Pressure: 30.19"   Gusts: NA
Location:  46.05°N, 87.49°W
Report Text: KSAW 281057Z AUTO 00000KT 10SM BKN100 M16/M18 A3019 RMK AO2 T11591184
Loading
Personal Weather Stations






























Interactive Weather Map New forecast layout! Learn more

10-Day Weather Forecast

Advertisements
Track Severe Weather on mobile